createdAt,value
2018-11-29T00:02:02.148Z,27.00
2018-11-29T00:04:30.295Z,26.67
2018-11-29T00:06:58.433Z,26.30
2018-11-29T00:09:26.623Z,28.17
2018-11-29T00:11:54.769Z,27.57
2018-11-29T00:14:22.691Z,26.40
2018-11-29T00:16:50.607Z,26.10
2018-11-29T00:19:18.731Z,25.07
2018-11-29T00:21:46.651Z,27.57
2018-11-29T00:24:14.774Z,26.50
2018-11-29T00:26:42.913Z,25.70
2018-11-29T00:29:11.043Z,28.40
2018-11-29T00:31:39.190Z,27.57
2018-11-29T00:34:07.332Z,28.67
2018-11-29T00:36:35.472Z,30.03
2018-11-29T00:39:03.747Z,28.53
2018-11-29T00:41:31.667Z,29.80
2018-11-29T00:43:59.856Z,26.63
2018-11-29T00:46:28.006Z,28.07
2018-11-29T00:48:55.934Z,25.80
2018-11-29T00:51:23.879Z,26.07
2018-11-29T00:53:51.839Z,27.13
2018-11-29T00:56:19.990Z,29.83
2018-11-29T00:58:48.124Z,24.20
2018-11-29T01:01:16.285Z,27.70
2018-11-29T01:03:44.436Z,26.97
2018-11-29T01:06:12.579Z,26.80
2018-11-29T01:08:40.731Z,28.53
2018-11-29T01:11:08.876Z,26.93
2018-11-29T01:13:37.047Z,26.00
2018-11-29T01:16:04.964Z,25.70
2018-11-29T01:18:32.875Z,36.00
2018-11-29T01:21:00.801Z,32.77
2018-11-29T01:23:28.735Z,27.67
2018-11-29T01:25:56.655Z,30.53
2018-11-29T01:28:24.796Z,25.63
2018-11-29T01:30:52.718Z,28.53
2018-11-29T01:33:20.849Z,24.73
2018-11-29T01:35:48.767Z,29.90
2018-11-29T01:38:16.911Z,27.70
2018-11-29T01:40:45.043Z,27.97
2018-11-29T01:43:13.215Z,29.03
2018-11-29T01:45:41.142Z,26.33
2018-11-29T01:48:09.064Z,27.30
2018-11-29T01:50:37.014Z,30.03
2018-11-29T01:53:04.968Z,28.93
2018-11-29T01:55:32.890Z,32.10
2018-11-29T01:58:01.031Z,25.13
2018-11-29T02:00:28.942Z,28.50
2018-11-29T02:02:57.138Z,28.90
2018-11-29T02:05:25.295Z,31.20
2018-11-29T02:07:53.204Z,28.07
2018-11-29T02:10:26.728Z,27.50
2018-11-29T02:12:55.366Z,28.13
2018-11-29T02:15:23.506Z,29.50
2018-11-29T02:17:51.749Z,26.53
2018-11-29T02:20:20.112Z,29.10
2018-11-29T02:22:48.367Z,27.43
2018-11-29T02:25:16.274Z,25.37
2018-11-29T02:27:44.426Z,25.80
2018-11-29T02:30:13.057Z,26.53
2018-11-29T02:32:41.191Z,26.43
2018-11-29T02:35:09.320Z,24.53
2018-11-29T02:37:37.313Z,27.07
2018-11-29T02:40:08.265Z,27.37
2018-11-29T02:42:36.184Z,26.70
2018-11-29T02:45:04.379Z,25.30
2018-11-29T02:47:32.555Z,26.93
2018-11-29T02:50:00.685Z,27.00
2018-11-29T02:52:28.820Z,26.93
2018-11-29T02:54:56.943Z,27.03
2018-11-29T02:57:25.133Z,26.37
2018-11-29T02:59:53.256Z,28.20
2018-11-29T03:02:21.384Z,28.40
2018-11-29T03:04:49.504Z,25.93
2018-11-29T03:07:17.675Z,26.67
2018-11-29T03:09:45.800Z,26.60
2018-11-29T03:12:13.719Z,24.20
2018-11-29T03:14:41.859Z,27.30
2018-11-29T03:17:09.992Z,28.37
2018-11-29T03:19:37.906Z,26.67
2018-11-29T03:22:06.333Z,25.50
2018-11-29T03:24:34.460Z,25.67
2018-11-29T03:27:02.594Z,27.27
2018-11-29T03:29:30.741Z,29.73
2018-11-29T03:31:58.912Z,31.43
2018-11-29T03:34:27.016Z,27.27
2018-11-29T03:36:55.137Z,26.90
2018-11-29T03:39:23.266Z,29.20
2018-11-29T03:41:51.429Z,25.73
2018-11-29T03:44:19.560Z,25.30
2018-11-29T03:46:47.692Z,28.93
2018-11-29T03:49:15.626Z,31.37
2018-11-29T03:51:43.567Z,28.17
2018-11-29T03:54:11.460Z,30.33
2018-11-29T03:56:39.367Z,30.83
2018-11-29T03:59:07.501Z,28.30
2018-11-29T04:01:35.640Z,30.87
2018-11-29T04:04:03.756Z,27.80
2018-11-29T04:06:31.902Z,29.77
2018-11-29T04:09:00.031Z,30.53
2018-11-29T04:11:28.165Z,31.07
2018-11-29T04:13:56.280Z,26.70
2018-11-29T04:16:24.404Z,27.17
2018-11-29T04:18:52.527Z,29.57
2018-11-29T04:21:20.659Z,29.60
2018-11-29T04:23:48.793Z,27.97
2018-11-29T04:26:16.939Z,30.63
2018-11-29T04:28:45.069Z,26.47
2018-11-29T04:31:13.251Z,25.67
2018-11-29T04:33:41.411Z,28.63
2018-11-29T04:36:09.544Z,27.40
2018-11-29T04:38:38.040Z,23.37
2018-11-29T04:41:06.372Z,26.03
2018-11-29T04:43:34.536Z,26.67
2018-11-29T04:46:08.086Z,29.03
2018-11-29T04:48:36.252Z,26.57
2018-11-29T04:51:04.421Z,24.13
2018-11-29T04:53:32.343Z,23.70
2018-11-29T04:56:00.472Z,28.47
2018-11-29T04:58:28.383Z,26.77
2018-11-29T05:00:56.511Z,25.73
2018-11-29T05:03:24.739Z,24.53
2018-11-29T05:05:52.906Z,27.13
2018-11-29T05:08:21.050Z,27.27
2018-11-29T05:10:49.200Z,28.33
2018-11-29T05:13:17.327Z,27.70
2018-11-29T05:15:45.231Z,29.10
2018-11-29T05:18:13.187Z,26.90
2018-11-29T05:20:41.128Z,35.50
2018-11-29T05:23:09.035Z,29.43
2018-11-29T05:25:37.165Z,28.70
2018-11-29T05:28:05.463Z,31.07
2018-11-29T05:30:33.612Z,32.13
2018-11-29T05:33:01.756Z,31.60
2018-11-29T05:35:29.895Z,27.70
2018-11-29T05:37:58.043Z,29.63
2018-11-29T05:40:26.191Z,31.30
2018-11-29T05:42:54.331Z,31.23
2018-11-29T05:45:22.490Z,28.43
2018-11-29T05:47:50.669Z,33.93
2018-11-29T05:50:18.823Z,25.73
2018-11-29T05:52:46.966Z,31.10
2018-11-29T05:55:14.876Z,32.70
2018-11-29T05:57:43.015Z,33.03
2018-11-29T06:00:11.632Z,33.27
2018-11-29T06:02:39.884Z,34.10
2018-11-29T06:05:09.435Z,34.40
2018-11-29T06:07:37.676Z,36.90
2018-11-29T06:10:05.823Z,35.00
2018-11-29T06:12:33.756Z,38.57
2018-11-29T06:15:01.892Z,42.83
2018-11-29T06:17:30.068Z,36.10
2018-11-29T06:19:58.228Z,34.87
2018-11-29T06:22:26.142Z,33.07
2018-11-29T06:24:54.283Z,41.23
2018-11-29T06:27:22.459Z,73.70
2018-11-29T06:29:50.615Z,36.27
2018-11-29T06:32:18.744Z,26.93
2018-11-29T06:34:47.015Z,35.17
2018-11-29T06:37:15.154Z,40.37
2018-11-29T06:39:43.336Z,82.40
2018-11-29T06:42:11.507Z,71.97
2018-11-29T06:44:39.421Z,51.87
2018-11-29T06:47:07.535Z,40.67
2018-11-29T06:49:35.683Z,60.53
2018-11-29T06:52:03.635Z,47.17
2018-11-29T06:54:31.784Z,51.43
2018-11-29T06:56:59.925Z,31.93
2018-11-29T06:59:28.048Z,30.20
2018-11-29T07:01:56.164Z,39.27
2018-11-29T07:04:24.339Z,37.20
2018-11-29T07:06:52.466Z,36.33
2018-11-29T07:09:20.688Z,34.37
2018-11-29T07:11:48.594Z,34.77
2018-11-29T07:14:16.740Z,33.47
2018-11-29T07:16:44.655Z,31.47
2018-11-29T07:19:15.025Z,33.37
2018-11-29T07:21:50.319Z,30.27
2018-11-29T07:24:18.272Z,30.00
2018-11-29T07:26:46.210Z,28.57
2018-11-29T07:29:16.931Z,35.67
2018-11-29T07:31:42.633Z,33.83
2018-11-29T07:34:10.764Z,36.90
2018-11-29T07:36:38.904Z,36.37
2018-11-29T07:39:08.847Z,34.40
2018-11-29T07:41:37.868Z,32.73
2018-11-29T07:44:07.311Z,35.10
2018-11-29T07:46:35.559Z,35.10
2018-11-29T07:49:03.695Z,36.80
2018-11-29T07:51:31.799Z,35.10
2018-11-29T07:53:59.940Z,35.00
2018-11-29T07:56:28.055Z,33.77
2018-11-29T07:58:56.208Z,34.37
2018-11-29T08:01:24.329Z,28.90
2018-11-29T08:03:52.482Z,29.17
2018-11-29T08:06:26.139Z,33.17
2018-11-29T08:08:54.280Z,28.80
2018-11-29T08:11:22.408Z,30.73
2018-11-29T08:13:50.544Z,28.00
2018-11-29T08:16:18.455Z,31.53
2018-11-29T08:18:46.371Z,27.90
2018-11-29T08:21:14.492Z,25.83
2018-11-29T08:23:42.617Z,26.70
2018-11-29T08:26:10.796Z,26.27
2018-11-29T08:28:38.720Z,25.33
2018-11-29T08:31:06.896Z,25.37
2018-11-29T08:33:35.028Z,26.63
2018-11-29T08:36:03.239Z,25.80
2018-11-29T08:38:31.395Z,27.00
2018-11-29T08:40:59.560Z,30.90
2018-11-29T08:43:27.698Z,26.93
2018-11-29T08:45:55.860Z,28.47
2018-11-29T08:48:23.998Z,25.77
2018-11-29T08:50:52.140Z,29.13
2018-11-29T08:53:20.286Z,30.90
2018-11-29T08:55:48.419Z,28.17
2018-11-29T08:58:16.580Z,25.10
2018-11-29T09:00:44.489Z,30.20
2018-11-29T09:03:12.603Z,30.23
2018-11-29T09:05:40.746Z,27.13
2018-11-29T09:08:08.663Z,29.50
2018-11-29T09:10:48.960Z,26.73
2018-11-29T09:13:17.088Z,27.20
2018-11-29T09:15:45.011Z,28.90
2018-11-29T09:18:13.140Z,28.13
2018-11-29T09:20:41.369Z,27.93
2018-11-29T09:23:09.267Z,26.90
2018-11-29T09:25:37.404Z,27.63
2018-11-29T09:28:05.927Z,24.53
2018-11-29T09:30:34.253Z,23.40
2018-11-29T09:33:02.394Z,25.30
2018-11-29T09:35:30.302Z,26.90
2018-11-29T09:37:58.436Z,25.93
2018-11-29T09:40:26.588Z,24.13
2018-11-29T09:42:54.711Z,24.13
2018-11-29T09:45:23.520Z,21.97
2018-11-29T09:47:53.728Z,21.97
2018-11-29T09:50:21.998Z,23.00
2018-11-29T09:52:50.134Z,23.60
2018-11-29T09:55:18.280Z,21.10
2018-11-29T09:57:47.352Z,20.30
2018-11-29T10:00:31.595Z,21.77
2018-11-29T10:03:06.315Z,21.30
2018-11-29T10:05:34.444Z,19.23
2018-11-29T10:08:02.571Z,20.13
2018-11-29T10:10:30.695Z,19.03
2018-11-29T10:12:58.824Z,20.20
2018-11-29T10:15:26.998Z,18.80
2018-11-29T10:17:55.113Z,19.10
2018-11-29T10:20:23.308Z,22.90
2018-11-29T10:22:51.445Z,19.90
2018-11-29T10:25:19.355Z,19.37
2018-11-29T10:27:50.017Z,18.77
2018-11-29T10:30:26.983Z,21.90
2018-11-29T10:32:55.129Z,19.30
2018-11-29T10:35:23.276Z,20.30
2018-11-29T10:37:51.409Z,22.20
2018-11-29T10:40:19.548Z,19.77
2018-11-29T10:42:47.705Z,21.03
2018-11-29T10:45:18.037Z,20.10
2018-11-29T10:47:52.347Z,16.07
2018-11-29T10:50:15.747Z,16.83
2018-11-29T10:52:43.892Z,19.37
2018-11-29T10:55:16.104Z,19.33
2018-11-29T10:57:44.241Z,18.33
2018-11-29T11:00:24.075Z,19.33
2018-11-29T11:02:58.514Z,19.00
2018-11-29T11:05:26.653Z,18.80
2018-11-29T11:07:54.840Z,19.03
2018-11-29T11:10:22.967Z,17.20
2018-11-29T11:12:51.232Z,18.17
2018-11-29T11:15:19.360Z,17.83
2018-11-29T11:17:47.479Z,21.20
2018-11-29T11:20:15.615Z,19.47
2018-11-29T11:22:43.775Z,16.73
2018-11-29T11:25:12.455Z,16.73
2018-11-29T11:27:40.577Z,21.30
2018-11-29T11:30:13.165Z,16.87
2018-11-29T11:32:41.632Z,15.93
2018-11-29T11:35:09.932Z,15.73
2018-11-29T11:37:38.065Z,15.43
2018-11-29T11:40:10.988Z,11.97
2018-11-29T11:42:39.104Z,13.97
2018-11-29T11:45:10.907Z,14.40
2018-11-29T11:47:39.032Z,13.97
2018-11-29T11:50:11.364Z,13.63
2018-11-29T11:52:39.480Z,12.90
2018-11-29T11:55:08.112Z,15.63
2018-11-29T11:57:36.236Z,12.10
2018-11-29T12:00:07.439Z,15.13
2018-11-29T12:02:35.566Z,13.70
2018-11-29T12:05:03.699Z,11.93
2018-11-29T12:07:31.820Z,11.27
2018-11-29T12:09:59.943Z,14.00
2018-11-29T12:12:28.072Z,12.03
2018-11-29T12:14:55.979Z,13.90
2018-11-29T12:17:24.169Z,10.37
2018-11-29T12:19:52.295Z,11.10
2018-11-29T12:22:20.415Z,12.53
2018-11-29T12:24:48.568Z,11.07
2018-11-29T12:27:16.471Z,11.00
2018-11-29T12:29:44.607Z,14.00
2018-11-29T12:32:12.739Z,14.00
2018-11-29T12:34:40.871Z,15.47
2018-11-29T12:37:09.084Z,17.97
2018-11-29T12:39:37.237Z,17.73
2018-11-29T12:42:05.408Z,16.53
2018-11-29T12:44:33.552Z,20.03
2018-11-29T12:47:01.677Z,16.20
2018-11-29T12:49:29.803Z,18.13
2018-11-29T12:51:57.944Z,15.87
2018-11-29T12:54:26.085Z,16.83
2018-11-29T12:56:54.220Z,18.27
2018-11-29T12:59:22.340Z,17.43
2018-11-29T13:01:50.484Z,15.97
2018-11-29T13:04:18.647Z,14.67
2018-11-29T13:06:46.783Z,14.87
2018-11-29T13:09:14.964Z,16.07
2018-11-29T13:11:43.136Z,16.23
2018-11-29T13:14:11.354Z,16.20
2018-11-29T13:16:39.448Z,17.87
2018-11-29T13:19:07.591Z,15.23
2018-11-29T13:21:35.767Z,14.03
2018-11-29T13:24:03.961Z,13.83
2018-11-29T13:26:32.070Z,13.97
2018-11-29T13:29:00.201Z,16.13
2018-11-29T13:31:28.367Z,14.10
2018-11-29T13:33:56.492Z,13.53
2018-11-29T13:36:24.656Z,12.07
2018-11-29T13:38:52.842Z,12.87
2018-11-29T13:41:20.972Z,15.77
2018-11-29T13:43:49.113Z,13.57
2018-11-29T13:46:17.249Z,15.53
2018-11-29T13:48:45.391Z,16.87
2018-11-29T13:51:13.573Z,17.97
2018-11-29T13:53:41.789Z,14.57
2018-11-29T13:56:09.956Z,16.03
2018-11-29T13:58:38.155Z,13.43
2018-11-29T14:01:06.297Z,11.87
2018-11-29T14:03:34.482Z,12.00
2018-11-29T14:06:02.612Z,14.77
2018-11-29T14:08:31.466Z,11.47
2018-11-29T14:10:59.631Z,13.53
2018-11-29T14:13:27.791Z,14.40
2018-11-29T14:15:55.921Z,12.30
2018-11-29T14:18:24.043Z,15.03
2018-11-29T14:20:52.179Z,12.63
2018-11-29T14:23:20.423Z,16.40
2018-11-29T14:25:48.616Z,13.40
2018-11-29T14:28:16.744Z,14.30
2018-11-29T14:30:44.912Z,17.30
2018-11-29T14:33:13.034Z,14.20
2018-11-29T14:35:41.159Z,20.07
2018-11-29T14:38:09.298Z,14.87
2018-11-29T14:40:37.836Z,16.03
2018-11-29T14:43:06.738Z,20.47
2018-11-29T14:45:34.870Z,18.13
2018-11-29T14:48:02.995Z,19.43
2018-11-29T14:50:35.394Z,19.93
2018-11-29T14:53:03.532Z,21.07
2018-11-29T14:55:31.672Z,18.43
2018-11-29T14:57:59.802Z,24.23
2018-11-29T15:00:27.932Z,19.67
2018-11-29T15:02:56.815Z,25.27
2018-11-29T15:05:27.142Z,22.27
2018-11-29T15:07:55.296Z,21.50
2018-11-29T15:10:23.473Z,21.02
2018-11-29T15:12:51.394Z,22.03
2018-11-29T15:15:19.511Z,20.03
2018-11-29T15:17:48.463Z,21.10
2018-11-29T15:20:35.941Z,20.27
2018-11-29T15:23:04.104Z,22.80
2018-11-29T15:25:33.131Z,19.33
2018-11-29T15:28:00.231Z,24.53
2018-11-29T15:30:28.377Z,21.67
2018-11-29T15:32:56.572Z,28.80
2018-11-29T15:35:24.470Z,23.03
2018-11-29T15:37:52.612Z,26.37
2018-11-29T15:40:20.757Z,25.93
2018-11-29T15:42:48.931Z,25.60
2018-11-29T15:45:24.042Z,24.90
2018-11-29T15:47:52.188Z,22.67
2018-11-29T15:50:20.078Z,24.40
2018-11-29T15:52:48.211Z,18.53
2018-11-29T15:55:20.423Z,27.73
2018-11-29T15:57:49.491Z,25.43
2018-11-29T16:00:22.691Z,22.77
2018-11-29T16:02:51.475Z,18.97
2018-11-29T16:05:19.559Z,21.43
2018-11-29T16:07:47.704Z,17.80
2018-11-29T16:10:19.961Z,20.57
2018-11-29T16:12:48.079Z,18.17
2018-11-29T16:15:17.012Z,21.00
2018-11-29T16:17:45.265Z,16.67
2018-11-29T16:20:17.175Z,16.63
2018-11-29T16:22:44.966Z,17.57
2018-11-29T16:25:13.156Z,15.97
2018-11-29T16:27:41.531Z,13.93
2018-11-29T16:30:15.590Z,12.77
2018-11-29T16:32:43.991Z,15.63
2018-11-29T16:35:12.226Z,15.57
2018-11-29T16:37:40.371Z,14.73
2018-11-29T16:40:08.955Z,17.75
2018-11-29T16:42:37.104Z,15.50
2018-11-29T16:45:06.934Z,16.10
2018-11-29T16:47:34.842Z,19.00
2018-11-29T16:50:02.975Z,19.33
2018-11-29T16:52:30.886Z,16.40
2018-11-29T16:54:59.015Z,14.83
2018-11-29T16:57:26.925Z,19.97
2018-11-29T16:59:55.047Z,15.40
2018-11-29T17:02:23.224Z,19.10
2018-11-29T17:04:51.356Z,18.90
2018-11-29T17:07:19.496Z,17.80
2018-11-29T17:12:22.367Z,19.30
2018-11-29T17:14:51.521Z,19.17
2018-11-29T17:17:19.664Z,23.93
2018-11-29T17:19:47.571Z,21.80
2018-11-29T17:22:15.820Z,27.23
2018-11-29T17:24:43.935Z,18.93
2018-11-29T17:27:12.067Z,21.97
2018-11-29T17:29:40.240Z,23.37
2018-11-29T17:32:08.386Z,28.17
2018-11-29T17:34:36.529Z,22.40
2018-11-29T17:37:04.692Z,22.43
2018-11-29T17:39:32.832Z,22.20
2018-11-29T17:42:00.770Z,23.57
2018-11-29T17:44:28.680Z,20.80
2018-11-29T17:46:56.595Z,20.63
2018-11-29T17:49:24.708Z,20.00
2018-11-29T17:51:53.799Z,20.43
2018-11-29T17:54:20.778Z,17.53
2018-11-29T17:56:48.927Z,19.93
2018-11-29T17:59:17.050Z,20.03
2018-11-29T18:01:44.967Z,20.57
2018-11-29T18:04:12.883Z,19.33
2018-11-29T18:06:41.011Z,24.37
2018-11-29T18:09:10.171Z,24.93
2018-11-29T18:11:38.868Z,21.70
2018-11-29T18:14:07.144Z,20.40
2018-11-29T18:16:35.060Z,22.77
2018-11-29T18:19:03.039Z,21.97
2018-11-29T18:21:30.954Z,20.90
2018-11-29T18:23:58.875Z,18.53
2018-11-29T18:26:27.012Z,19.43
2018-11-29T18:28:55.171Z,19.47
2018-11-29T18:31:23.079Z,17.80
2018-11-29T18:33:57.763Z,18.27
2018-11-29T18:36:25.904Z,17.97
2018-11-29T18:38:54.108Z,19.13
2018-11-29T18:41:22.272Z,20.20
2018-11-29T18:43:50.465Z,21.13
2018-11-29T18:46:18.615Z,17.90
2018-11-29T18:48:46.762Z,17.77
2018-11-29T18:51:14.663Z,22.03
2018-11-29T18:53:42.791Z,18.37
2018-11-29T18:56:10.949Z,18.13
2018-11-29T18:58:38.856Z,19.87
2018-11-29T19:01:07.342Z,19.47
2018-11-29T19:03:35.563Z,14.73
2018-11-29T19:06:03.839Z,19.40
2018-11-29T19:08:31.759Z,19.10
2018-11-29T19:10:59.870Z,24.33
2018-11-29T19:13:28.022Z,20.63
2018-11-29T19:15:56.150Z,18.00
2018-11-29T19:18:24.300Z,20.33
2018-11-29T19:20:52.586Z,17.13
2018-11-29T19:23:20.762Z,17.90
2018-11-29T19:25:48.988Z,17.67
2018-11-29T19:28:17.154Z,19.60
2018-11-29T19:30:45.103Z,19.07
2018-11-29T19:33:17.779Z,21.80
2018-11-29T19:35:47.293Z,19.20
2018-11-29T19:38:15.434Z,20.87
2018-11-29T19:40:43.660Z,21.50
2018-11-29T19:43:11.730Z,23.80
2018-11-29T19:45:39.866Z,19.57
2018-11-29T19:48:08.150Z,21.43
2018-11-29T19:50:36.331Z,21.53
2018-11-29T19:53:06.216Z,19.47
2018-11-29T19:55:34.603Z,21.80
2018-11-29T19:58:02.732Z,20.20
2018-11-29T20:00:30.880Z,17.83
2018-11-29T20:02:59.081Z,22.40
2018-11-29T20:05:27.276Z,22.60
2018-11-29T20:07:55.477Z,21.20
2018-11-29T20:10:23.658Z,20.20
2018-11-29T20:12:59.316Z,20.93
2018-11-29T20:15:27.561Z,18.77
2018-11-29T20:17:55.663Z,22.60
2018-11-29T20:20:23.911Z,20.47
2018-11-29T20:22:52.065Z,19.30
2018-11-29T20:25:21.500Z,19.17
2018-11-29T20:27:49.414Z,22.33
2018-11-29T20:30:18.690Z,19.20
2018-11-29T20:32:47.764Z,18.57
2018-11-29T20:35:16.275Z,19.17
2018-11-29T20:37:44.211Z,20.10
2018-11-29T20:40:20.802Z,19.10
2018-11-29T20:42:49.151Z,23.70
2018-11-29T20:45:18.856Z,21.63
2018-11-29T20:47:46.775Z,22.10
2018-11-29T20:50:15.400Z,19.37
2018-11-29T20:52:43.612Z,19.20
2018-11-29T20:55:13.349Z,22.43
2018-11-29T20:57:41.259Z,21.00
2018-11-29T21:00:11.529Z,20.73
2018-11-29T21:02:39.735Z,21.03
2018-11-29T21:05:10.321Z,20.00
2018-11-29T21:07:38.551Z,19.23
2018-11-29T21:10:13.768Z,19.67
2018-11-29T21:12:42.084Z,20.37
2018-11-29T21:15:10.263Z,19.63
2018-11-29T21:17:38.205Z,21.40
2018-11-29T21:20:10.039Z,21.43
2018-11-29T21:22:38.239Z,23.13
2018-11-29T21:25:09.356Z,21.73
2018-11-29T21:27:37.350Z,18.90
2018-11-29T21:30:11.723Z,21.73
2018-11-29T21:32:39.848Z,23.03
2018-11-29T21:35:09.043Z,20.00
2018-11-29T21:37:36.983Z,20.45
2018-11-29T21:40:11.237Z,22.73
2018-11-29T21:42:39.351Z,19.27
2018-11-29T21:45:07.483Z,20.20
2018-11-29T21:47:35.486Z,19.53
2018-11-29T21:50:03.648Z,20.93
2018-11-29T21:52:31.561Z,20.00
2018-11-29T21:54:59.478Z,20.83
2018-11-29T21:57:27.396Z,22.63
2018-11-29T21:59:55.519Z,20.87
2018-11-29T22:02:23.422Z,20.13
2018-11-29T22:04:51.588Z,21.13
2018-11-29T22:07:19.724Z,22.13
2018-11-29T22:09:47.957Z,18.33
2018-11-29T22:12:16.067Z,22.57
2018-11-29T22:14:44.182Z,18.80
2018-11-29T22:17:12.328Z,22.07
2018-11-29T22:19:40.502Z,21.97
2018-11-29T22:22:08.641Z,21.60
2018-11-29T22:24:36.788Z,19.87
2018-11-29T22:27:04.937Z,20.17
2018-11-29T22:29:33.153Z,21.27
2018-11-29T22:32:01.296Z,22.33
2018-11-29T22:34:29.420Z,22.23
2018-11-29T22:36:57.539Z,22.57
2018-11-29T22:39:25.685Z,24.93
2018-11-29T22:41:53.783Z,20.83
2018-11-29T22:44:21.904Z,21.13
2018-11-29T22:46:50.026Z,23.33
2018-11-29T22:49:17.940Z,25.93
2018-11-29T22:51:46.077Z,22.67
2018-11-29T22:54:13.978Z,20.93
2018-11-29T22:56:42.112Z,20.33
2018-11-29T22:59:10.236Z,22.67
2018-11-29T23:01:38.378Z,23.47
2018-11-29T23:04:06.608Z,26.43
2018-11-29T23:06:34.523Z,27.00
2018-11-29T23:09:02.676Z,28.17
2018-11-29T23:11:30.816Z,22.63
2018-11-29T23:13:58.959Z,24.07
2018-11-29T23:16:26.881Z,26.53
2018-11-29T23:18:54.850Z,25.27
2018-11-29T23:21:22.777Z,24.60
2018-11-29T23:23:50.922Z,24.27
2018-11-29T23:26:19.079Z,21.20
2018-11-29T23:28:47.224Z,24.10
2018-11-29T23:31:15.413Z,20.60
2018-11-29T23:33:43.654Z,24.37
2018-11-29T23:36:11.816Z,21.93
2018-11-29T23:38:39.943Z,22.17
2018-11-29T23:41:08.080Z,18.80
2018-11-29T23:43:36.230Z,21.40
2018-11-29T23:46:04.468Z,21.53
2018-11-29T23:48:33.219Z,22.00
2018-11-29T23:51:01.199Z,23.37
2018-11-29T23:53:29.108Z,25.00
2018-11-29T23:55:57.270Z,24.07
2018-11-29T23:58:25.409Z,21.13
